Time;durP1;ratioP1;P1;durP2;ratioP2;P2;SDS_P1;SDS_P2;PMS_P1;PMS_P2;Temp;Humidity;BMP_temperature;BMP_pressure;BME280_temperature;BME280_humidity;BME280_pressure;Samples;Min_cycle;Max_cycle;Signal;HPM_P1;HPM_P2
2022/09/17 00:00:39;;;;;;;0.40;0.40;;;;;;;10.91;61.71;98836.28;5064638;28;20035;-68
2022/09/17 00:03:05;;;;;;;0.40;0.40;;;;;;;10.95;61.74;98851.75;5064906;28;20059;-68
2022/09/17 00:05:30;;;;;;;0.40;0.40;;;;;;;10.93;61.59;98844.00;5065087;28;20511;-68
2022/09/17 00:07:56;;;;;;;0.40;0.40;;;;;;;10.95;61.52;98854.34;5064052;28;20052;-67
2022/09/17 00:10:23;;;;;;;0.40;0.40;;;;;;;10.94;61.53;98857.84;5064175;28;20033;-68
2022/09/17 00:12:49;;;;;;;0.40;0.40;;;;;;;10.88;61.53;98854.56;5064439;28;20063;-68
2022/09/17 00:15:15;;;;;;;0.40;0.40;;;;;;;10.85;61.46;98862.47;5064862;28;20025;-68
2022/09/17 00:17:41;;;;;;;0.40;0.40;;;;;;;10.83;62.15;98866.03;5064828;28;20081;-69
2022/09/17 00:20:11;;;;;;;0.50;0.50;;;;;;;10.83;61.83;98869.44;5064894;28;20029;-68
2022/09/17 00:22:38;;;;;;;0.40;0.40;;;;;;;10.85;61.50;98867.66;5063603;28;20025;-69
2022/09/17 00:25:05;;;;;;;0.30;0.30;;;;;;;10.77;61.75;98860.13;5063604;28;20036;-68
2022/09/17 00:27:31;;;;;;;0.40;0.40;;;;;;;10.77;61.94;98865.31;5063643;28;20020;-66
2022/09/17 00:29:56;;;;;;;0.40;0.40;;;;;;;10.78;62.06;98867.00;5064313;28;20024;-68
2022/09/17 00:32:22;;;;;;;0.40;0.40;;;;;;;10.76;62.14;98871.44;5064214;28;20089;-68
2022/09/17 00:34:50;;;;;;;0.40;0.40;;;;;;;10.73;61.83;98861.16;5064641;28;20082;-68
2022/09/17 00:37:16;;;;;;;0.40;0.40;;;;;;;10.71;62.34;98870.72;5064359;28;20073;-68
2022/09/17 00:39:42;;;;;;;0.40;0.40;;;;;;;10.73;61.94;98873.28;5064503;28;20028;-68
2022/09/17 00:42:10;;;;;;;0.40;0.40;;;;;;;10.72;62.27;98876.78;5063274;28;20052;-68
2022/09/17 00:44:49;;;;;;;0.40;0.40;;;;;;;10.66;62.47;98873.47;5064408;28;20196;-68
2022/09/17 00:47:21;;;;;;;0.40;0.40;;;;;;;10.65;62.72;98887.34;5064649;28;20108;-68
2022/09/17 00:49:50;;;;;;;0.50;0.50;;;;;;;10.66;62.40;98877.81;5064523;28;20045;-68
2022/09/17 00:52:24;;;;;;;0.40;0.40;;;;;;;10.68;62.49;98878.63;5064579;28;20033;-69
2022/09/17 00:55:06;;;;;;;0.40;0.40;;;;;;;10.64;62.87;98884.78;5064452;28;20021;-69
2022/09/17 00:57:32;;;;;;;0.50;0.50;;;;;;;10.61;62.78;98877.09;5067301;28;20049;-69
2022/09/17 00:59:58;;;;;;;0.47;0.47;;;;;;;10.64;62.52;98885.66;5066298;28;20040;-68
2022/09/17 01:02:24;;;;;;;0.40;0.40;;;;;;;10.64;62.41;98889.97;5067660;28;20025;-68
2022/09/17 01:04:50;;;;;;;0.35;0.35;;;;;;;10.56;62.33;98890.25;5068141;28;20032;-68
2022/09/17 01:07:44;;;;;;;0.30;0.30;;;;;;;10.56;62.43;98890.25;5068089;28;20100;-68
2022/09/17 01:10:41;;;;;;;0.38;0.38;;;;;;;10.52;62.50;98886.91;5067756;28;20499;-68
2022/09/17 01:13:28;;;;;;;0.40;0.40;;;;;;;10.48;62.51;98900.03;5067737;28;20404;-69
2022/09/17 01:16:10;;;;;;;0.40;0.40;;;;;;;10.44;62.29;98895.81;5067883;28;20024;-69
2022/09/17 01:19:08;;;;;;;0.40;0.40;;;;;;;10.43;62.07;98899.31;5067891;28;20078;-69
2022/09/17 01:21:39;;;;;;;0.40;0.40;;;;;;;10.36;61.73;98904.69;5054355;28;20048;-69
2022/09/17 01:24:27;;;;;;;0.50;0.50;;;;;;;10.33;61.83;98903.94;5067573;28;20067;-69
2022/09/17 01:27:30;;;;;;;0.40;0.40;;;;;;;10.25;61.63;98904.19;5067282;28;20460;-69
2022/09/17 01:30:14;;;;;;;0.40;0.40;;;;;;;10.20;61.57;98912.09;5067440;28;20071;-68
2022/09/17 01:33:06;;;;;;;0.40;0.40;;;;;;;10.12;61.84;98914.94;5067211;28;20020;-68
2022/09/17 01:35:34;;;;;;;0.50;0.50;;;;;;;10.08;61.98;98912.47;5067370;28;20053;-68
2022/09/17 01:38:24;;;;;;;0.40;0.40;;;;;;;10.01;62.70;98907.50;5067021;28;20049;-67
2022/09/17 01:41:06;;;;;;;0.40;0.40;;;;;;;9.97;62.99;98908.47;5066792;28;20025;-68
2022/09/17 01:43:44;;;;;;;0.40;0.40;;;;;;;9.99;62.85;98911.00;5066212;28;20029;-68
2022/09/17 01:46:23;;;;;;;0.40;0.40;;;;;;;9.97;63.35;98911.03;5067220;28;20056;-68
2022/09/17 01:48:55;;;;;;;0.40;0.40;;;;;;;9.99;63.12;98919.63;5066945;28;20351;-68
2022/09/17 01:51:27;;;;;;;0.40;0.40;;;;;;;9.95;63.41;98917.19;5067297;28;20380;-68
2022/09/17 01:53:58;;;;;;;;;;;;;;;9.98;63.72;98919.69;5067509;28;20132;-68
2022/09/17 01:56:29;;;;;;;0.40;0.40;;;;;;;9.94;63.69;98918.91;5067245;28;19913;-68
2022/09/17 01:59:16;;;;;;;0.40;0.40;;;;;;;9.95;63.71;98919.78;5066856;28;20084;-68
2022/09/17 02:01:44;;;;;;;0.40;0.40;;;;;;;9.97;63.26;98915.41;5066442;28;20060;-68
2022/09/17 02:04:27;;;;;;;0.40;0.40;;;;;;;9.94;63.20;98920.66;5066293;28;20025;-68
2022/09/17 02:07:01;;;;;;;0.40;0.40;;;;;;;9.91;63.40;98925.06;5066632;28;20077;-68
2022/09/17 02:09:35;;;;;;;0.40;0.40;;;;;;;9.91;63.05;98916.41;5066480;28;20104;-68
2022/09/17 02:12:04;;;;;;;0.40;0.40;;;;;;;9.87;62.65;98909.63;5066863;28;20032;-68
2022/09/17 02:14:38;;;;;;;0.40;0.40;;;;;;;9.86;62.88;98923.47;5066797;28;20029;-68
2022/09/17 02:17:19;;;;;;;0.40;0.40;;;;;;;9.81;62.82;98915.84;5066303;28;20499;-68
2022/09/17 02:19:45;;;;;;;0.50;0.50;;;;;;;9.74;62.75;98922.97;5066678;28;20033;-68
2022/09/17 02:22:22;;;;;;;0.40;0.40;;;;;;;9.75;62.84;98927.25;5065331;28;20033;-68
2022/09/17 02:25:03;;;;;;;0.40;0.40;;;;;;;9.73;62.48;98928.19;5065544;28;20017;-68
2022/09/17 02:28:01;;;;;;;0.40;0.40;;;;;;;9.66;62.74;98919.75;5065932;28;20043;-67
2022/09/17 02:30:26;;;;;;;0.40;0.40;;;;;;;9.67;62.12;98924.03;5066685;28;20025;-67
2022/09/17 02:32:53;;;;;;;0.40;0.40;;;;;;;9.62;62.47;98926.75;5066075;28;20035;-68
2022/09/17 02:35:18;;;;;;;0.40;0.40;;;;;;;9.62;62.54;98931.06;5066204;28;20017;-67
2022/09/17 02:37:44;;;;;;;0.50;0.50;;;;;;;9.53;62.66;98927.00;5066218;28;20025;-68
2022/09/17 02:40:13;;;;;;;0.40;0.40;;;;;;;9.49;62.71;98921.06;5065869;28;20021;-68
2022/09/17 02:43:12;;;;;;;0.40;0.40;;;;;;;9.52;62.68;98935.69;5065817;28;20517;-67
2022/09/17 02:45:51;;;;;;;0.32;0.32;;;;;;;9.50;62.27;98933.13;5066225;28;20406;-68
2022/09/17 02:48:55;;;;;;;0.40;0.40;;;;;;;9.48;62.52;98931.47;5065404;28;20078;-67
2022/09/17 02:51:51;;;;;;;0.40;0.40;;;;;;;9.46;63.21;98922.88;5066024;28;20054;-67
2022/09/17 02:54:32;;;;;;;0.40;0.40;;;;;;;9.46;63.39;98920.28;5065894;28;20032;-67
2022/09/17 02:57:10;;;;;;;0.40;0.40;;;;;;;9.47;63.85;98922.84;5065726;28;20028;-67
2022/09/17 02:59:55;;;;;;;0.40;0.40;;;;;;;9.55;64.46;98931.25;5065957;28;20021;-67
2022/09/17 03:02:34;;;;;;;0.40;0.40;;;;;;;9.57;64.34;98920.84;5065552;28;20050;-68
2022/09/17 03:05:02;;;;;;;0.40;0.40;;;;;;;9.63;63.96;98931.03;5065921;28;20077;-68
2022/09/17 03:07:28;;;;;;;0.40;0.40;;;;;;;9.64;63.75;98931.88;5065780;28;20044;-68
2022/09/17 03:09:53;;;;;;;0.40;0.40;;;;;;;9.62;63.88;98931.91;5064790;28;20025;-67
2022/09/17 03:12:18;;;;;;;0.50;0.50;;;;;;;9.59;64.18;98925.97;5065868;28;20130;-68
2022/09/17 03:14:44;;;;;;;0.40;0.40;;;;;;;9.53;64.26;98927.00;5065632;28;20040;-67
2022/09/17 03:17:10;;;;;;;0.50;0.50;;;;;;;9.52;64.15;98933.09;5065640;28;20045;-67
2022/09/17 03:19:35;;;;;;;0.40;0.40;;;;;;;9.51;64.21;98928.78;5064891;28;20025;-68
2022/09/17 03:22:00;;;;;;;0.40;0.40;;;;;;;9.51;63.52;98941.72;5065303;28;20037;-68
2022/09/17 03:24:26;;;;;;;0.40;0.40;;;;;;;9.50;63.47;98934.88;5064014;28;20021;-67
2022/09/17 03:26:51;;;;;;;0.50;0.50;;;;;;;9.48;63.55;98934.03;5064823;28;20021;-67
2022/09/17 03:29:17;;;;;;;0.40;0.40;;;;;;;9.46;63.42;98928.91;5063885;28;20025;-68
2022/09/17 03:31:42;;;;;;;0.73;0.73;;;;;;;9.42;63.77;98930.72;5064691;28;20024;-68
2022/09/17 03:34:08;;;;;;;0.40;0.40;;;;;;;9.42;63.53;98929.91;5065274;28;20021;-68
2022/09/17 03:36:33;;;;;;;0.40;0.40;;;;;;;9.35;63.32;98923.16;5064855;28;20052;-68
2022/09/17 03:39:00;;;;;;;0.40;0.40;;;;;;;9.38;63.32;98934.31;5065203;28;20049;-68
2022/09/17 03:41:26;;;;;;;0.40;0.40;;;;;;;9.36;63.25;98935.25;5065169;28;20040;-67
2022/09/17 03:43:52;;;;;;;0.40;0.40;;;;;;;9.27;63.16;98928.56;5065276;28;20025;-68
2022/09/17 03:46:18;;;;;;;0.40;0.40;;;;;;;9.23;63.20;98934.72;5065195;28;20496;-68
2022/09/17 03:48:43;;;;;;;0.40;0.40;;;;;;;9.22;63.53;98944.22;5046508;28;20080;-67
2022/09/17 03:51:09;;;;;;;0.50;0.50;;;;;;;9.19;63.38;98944.31;5065216;28;20056;-67
2022/09/17 03:53:35;;;;;;;0.40;0.40;;;;;;;9.17;63.04;98951.25;5064666;28;20028;-67
2022/09/17 03:56:02;;;;;;;0.40;0.40;;;;;;;9.12;63.16;98948.78;5064573;28;20025;-67
2022/09/17 03:58:29;;;;;;;0.40;0.40;;;;;;;9.11;63.28;98941.06;5064901;28;20021;-68
2022/09/17 04:00:56;;;;;;;0.40;0.40;;;;;;;9.13;63.21;98947.91;5065050;28;20025;-68
2022/09/17 04:03:23;;;;;;;0.40;0.40;;;;;;;9.11;63.00;98948.81;5064871;28;20024;-68
2022/09/17 04:05:48;;;;;;;0.40;0.40;;;;;;;9.03;63.01;98936.09;5064424;28;20031;-68
2022/09/17 04:08:14;;;;;;;0.40;0.40;;;;;;;9.02;62.95;98948.19;5064547;28;20017;-67
2022/09/17 04:10:39;;;;;;;0.40;0.40;;;;;;;8.98;63.15;98948.31;5064913;28;20044;-67
2022/09/17 04:13:04;;;;;;;0.40;0.40;;;;;;;8.96;63.07;98944.91;5064814;28;20025;-67
2022/09/17 04:15:30;;;;;;;0.40;0.40;;;;;;;8.91;63.10;98948.44;5063589;28;20032;-67
2022/09/17 04:17:56;;;;;;;0.50;0.50;;;;;;;8.85;62.97;98935.66;5063470;28;20059;-67
2022/09/17 04:20:23;;;;;;;0.40;0.40;;;;;;;8.85;63.35;98952.94;5063223;28;20021;-67
2022/09/17 04:22:48;;;;;;;0.45;0.45;;;;;;;8.80;63.05;98948.72;5063778;28;20029;-65
2022/09/17 04:25:14;;;;;;;0.40;0.40;;;;;;;8.80;63.05;98951.31;5064545;28;20021;-67
2022/09/17 04:27:39;;;;;;;0.40;0.40;;;;;;;8.76;63.10;98952.28;5063659;28;20021;-68
2022/09/17 04:30:05;;;;;;;0.40;0.40;;;;;;;8.71;63.48;98953.25;5065005;28;20039;-67
2022/09/17 04:32:31;;;;;;;0.40;0.40;;;;;;;8.62;63.07;98941.41;5068041;28;20025;-67
2022/09/17 04:34:56;;;;;;;0.40;0.40;;;;;;;8.69;63.19;98955.88;5068630;28;20113;-69
2022/09/17 04:37:22;;;;;;;0.40;0.40;;;;;;;8.69;63.26;98961.06;5068231;28;20055;-68
2022/09/17 04:39:47;;;;;;;0.40;0.40;;;;;;;8.62;63.21;98949.16;5068577;28;20033;-68
2022/09/17 04:42:14;;;;;;;0.40;0.40;;;;;;;8.66;63.16;98955.97;5068364;28;20025;-68
2022/09/17 04:44:40;;;;;;;0.40;0.40;;;;;;;8.66;63.16;98956.81;5068439;28;20044;-68
2022/09/17 04:47:05;;;;;;;0.40;0.40;;;;;;;8.68;63.17;98959.38;5068765;28;20013;-68
2022/09/17 04:49:31;;;;;;;0.40;0.40;;;;;;;8.71;63.26;98961.03;5067937;28;20373;-68
2022/09/17 04:51:57;;;;;;;0.40;0.40;;;;;;;8.73;63.42;98967.88;5068176;28;20448;-67
2022/09/17 04:54:22;;;;;;;0.40;0.40;;;;;;;8.81;63.60;98957.34;5068188;28;20025;-66
2022/09/17 04:56:47;;;;;;;0.40;0.40;;;;;;;9.03;64.06;98969.75;5068178;28;20369;-67
2022/09/17 04:59:13;;;;;;;0.50;0.50;;;;;;;9.31;64.14;98969.03;5067805;28;20461;-67
2022/09/17 05:01:38;;;;;;;0.40;0.40;;;;;;;9.56;64.65;98978.72;5068181;28;20017;-67
2022/09/17 05:04:03;;;;;;;0.40;0.40;;;;;;;9.92;64.80;98973.41;5068053;28;20025;-67
2022/09/17 05:06:29;;;;;;;0.40;0.40;;;;;;;10.33;65.16;98969.63;5068064;28;20497;-67
2022/09/17 05:08:54;;;;;;;3.60;1.05;;;;;;;10.58;64.86;98948.13;5067769;28;20028;-67
2022/09/17 05:11:19;;;;;;;0.38;0.38;;;;;;;11.22;65.18;98984.16;5068075;28;20386;-67
2022/09/17 05:13:45;;;;;;;0.38;0.38;;;;;;;11.63;64.80;98975.81;5067631;28;20021;-67
2022/09/17 05:16:10;;;;;;;0.40;0.40;;;;;;;12.15;64.65;98974.81;5066574;28;20358;-67
2022/09/17 05:18:35;;;;;;;0.40;0.40;;;;;;;12.57;64.55;98977.56;5067776;28;20047;-67
2022/09/17 05:21:01;;;;;;;0.40;0.40;;;;;;;13.10;64.19;98978.06;5066516;28;20020;-68
2022/09/17 05:23:26;;;;;;;0.30;0.30;;;;;;;13.54;63.20;98978.84;5067302;28;20044;-67
2022/09/17 05:25:51;;;;;;;0.30;0.30;;;;;;;14.03;62.14;98975.78;5067831;28;20113;-68
2022/09/17 05:28:17;;;;;;;0.30;0.30;;;;;;;14.58;63.00;98979.34;5066280;28;20071;-68
2022/09/17 05:30:42;;;;;;;0.30;0.30;;;;;;;15.06;62.19;98986.66;5067661;28;20031;-68
2022/09/17 05:33:08;;;;;;;0.30;0.30;;;;;;;15.50;61.93;98984.44;5067602;28;20029;-67
2022/09/17 05:35:35;;;;;;;0.30;0.30;;;;;;;15.90;61.62;98988.50;5067363;28;20052;-67
2022/09/17 05:38:03;;;;;;;0.30;0.30;;;;;;;16.05;59.26;98992.09;5067487;28;20028;-67
2022/09/17 05:40:30;;;;;;;0.30;0.30;;;;;;;16.43;58.52;98983.06;5067349;28;20025;-67
2022/09/17 05:43:04;;;;;;;0.30;0.30;;;;;;;16.97;59.50;98977.38;5065495;28;20085;-69
2022/09/17 05:45:32;;;;;;;0.30;0.30;;;;;;;17.46;58.82;98992.94;5067486;28;20029;-68
2022/09/17 05:47:59;;;;;;;0.30;0.30;;;;;;;17.70;57.21;98988.00;5066729;28;20025;-67
2022/09/17 05:50:25;;;;;;;0.30;0.30;;;;;;;17.86;55.42;98997.56;5065812;28;20560;-68
2022/09/17 05:52:51;;;;;;;0.30;0.30;;;;;;;18.12;55.27;98991.66;5066636;28;20043;-68
2022/09/17 05:55:18;;;;;;;0.30;0.30;;;;;;;18.16;52.92;98991.38;5066904;28;20084;-67
2022/09/17 05:57:43;;;;;;;0.30;0.30;;;;;;;18.18;50.63;98992.13;5065390;28;20112;-69
2022/09/17 06:00:10;;;;;;;0.25;0.25;;;;;;;18.13;50.81;98998.59;5067137;28;20021;-68
2022/09/17 06:02:35;;;;;;;0.25;0.25;;;;;;;18.40;51.01;99000.44;5067052;28;20083;-67
2022/09/17 06:05:02;;;;;;;0.30;0.30;;;;;;;18.73;50.83;99000.97;5067061;28;20424;-68
2022/09/17 06:07:28;;;;;;;0.30;0.30;;;;;;;18.76;48.88;99006.88;5066497;28;20017;-68
2022/09/17 06:09:53;;;;;;;0.22;0.22;;;;;;;18.83;47.46;99004.69;5066739;28;20057;-68
2022/09/17 06:12:18;;;;;;;0.20;0.20;;;;;;;19.03;48.63;99003.38;5065468;28;20024;-68
2022/09/17 06:14:44;;;;;;;0.30;0.30;;;;;;;19.22;47.97;99007.41;5066825;28;20025;-68
2022/09/17 06:17:09;;;;;;;0.20;0.20;;;;;;;19.34;48.41;99004.91;5065364;28;20369;-69
2022/09/17 06:19:35;;;;;;;0.30;0.30;;;;;;;19.54;47.90;99006.16;5066557;28;20084;-68
2022/09/17 06:22:00;;;;;;;0.20;0.20;;;;;;;19.65;48.12;99011.53;5066600;28;20040;-68
2022/09/17 06:24:26;;;;;;;0.20;0.20;;;;;;;19.73;46.99;99010.19;5066533;28;20025;-67
2022/09/17 06:26:52;;;;;;;0.30;0.30;;;;;;;19.69;46.35;99014.81;5066481;28;20037;-68
2022/09/17 06:29:17;;;;;;;0.40;0.40;;;;;;;19.62;46.14;99016.16;5066143;28;20029;-69
2022/09/17 06:31:43;;;;;;;0.20;0.20;;;;;;;19.39;45.17;99014.16;5066640;28;20028;-68
2022/09/17 06:34:09;;;;;;;0.30;0.30;;;;;;;19.36;46.33;99010.91;5065036;28;20025;-67
2022/09/17 06:36:34;;;;;;;0.20;0.20;;;;;;;19.40;44.89;99017.66;5066095;28;20056;-67
2022/09/17 06:38:59;;;;;;;0.20;0.20;;;;;;;19.63;46.17;99020.50;5066149;28;20032;-68
2022/09/17 06:41:25;;;;;;;0.30;0.30;;;;;;;19.51;42.93;99016.91;5066275;28;20445;-67
2022/09/17 06:43:53;;;;;;;0.20;0.20;;;;;;;19.46;42.67;99011.16;5064995;28;20025;-67
2022/09/17 06:46:19;;;;;;;0.20;0.20;;;;;;;19.01;40.46;99015.75;5066366;28;20027;-67
2022/09/17 06:48:44;;;;;;;0.30;0.30;;;;;;;18.57;41.39;99015.09;5066184;28;20100;-68
2022/09/17 06:51:10;;;;;;;0.30;0.30;;;;;;;18.09;41.71;99019.78;5065101;28;20048;-68
2022/09/17 06:53:37;;;;;;;0.30;0.30;;;;;;;18.09;43.68;99027.66;5065087;28;20037;-69
2022/09/17 06:56:03;;;;;;;0.30;0.30;;;;;;;18.31;42.83;99022.84;5064945;28;20043;-68
2022/09/17 06:58:29;;;;;;;0.30;0.30;;;;;;;18.27;42.50;99022.22;5065745;28;20025;-68
2022/09/17 07:01:02;;;;;;;0.30;0.30;;;;;;;18.12;42.17;99031.91;5066139;28;20392;-67
2022/09/17 07:03:29;;;;;;;0.30;0.30;;;;;;;17.73;41.45;99020.25;5065897;28;20029;-68
2022/09/17 07:05:54;;;;;;;0.30;0.30;;;;;;;17.22;42.08;99019.72;5066118;28;20025;-68
2022/09/17 07:08:20;;;;;;;0.30;0.30;;;;;;;17.01;42.66;99016.53;5065811;28;20035;-67
2022/09/17 07:10:45;;;;;;;0.30;0.30;;;;;;;17.13;43.41;99009.75;5066032;28;20048;-68
2022/09/17 07:13:10;;;;;;;0.30;0.30;;;;;;;17.48;42.45;99027.00;5065897;28;20093;-68
2022/09/17 07:15:36;;;;;;;0.30;0.30;;;;;;;17.53;41.66;99017.03;5065739;28;20032;-68
2022/09/17 07:18:09;;;;;;;0.30;0.30;;;;;;;17.70;42.45;99027.38;5065116;28;20021;-72
2022/09/17 07:20:34;;;;;;;0.30;0.30;;;;;;;17.82;41.62;99022.31;5065581;28;20496;-68
2022/09/17 07:23:00;;;;;;;0.30;0.30;;;;;;;18.05;41.50;99023.50;5065628;28;20029;-71
2022/09/17 07:25:25;;;;;;;0.20;0.20;;;;;;;18.21;40.23;99018.19;5065437;28;20112;-68
2022/09/17 07:27:51;;;;;;;0.20;0.20;;;;;;;18.31;40.42;99025.47;5064161;28;20021;-69
2022/09/17 07:30:18;;;;;;;0.30;0.30;;;;;;;18.35;40.30;99018.25;5064406;28;20033;-71
2022/09/17 07:32:43;;;;;;;0.30;0.30;;;;;;;18.33;40.45;99028.88;5065185;28;20031;-70
2022/09/17 07:35:09;;;;;;;0.30;0.30;;;;;;;18.28;40.33;99018.66;5065430;28;20088;-68
2022/09/17 07:37:34;;;;;;;0.20;0.20;;;;;;;18.41;40.07;99017.88;5065187;28;20045;-70
2022/09/17 07:39:59;;;;;;;0.30;0.30;;;;;;;18.30;40.21;99029.91;5065354;28;20028;-68
2022/09/17 07:42:26;;;;;;;0.30;0.30;;;;;;;18.13;40.05;99024.88;5064748;28;20029;-63
2022/09/17 07:44:51;;;;;;;0.30;0.30;;;;;;;18.01;40.36;99026.44;5065323;28;20084;-65
2022/09/17 07:47:17;;;;;;;0.30;0.30;;;;;;;18.05;39.92;99039.28;5065175;28;20074;-69
2022/09/17 07:49:42;;;;;;;0.30;0.30;;;;;;;17.82;40.67;99038.91;5065236;28;20020;-68
2022/09/17 07:52:17;;;;;;;0.30;0.30;;;;;;;17.74;40.72;99035.06;5065091;28;20088;-70
2022/09/17 07:54:42;;;;;;;0.30;0.30;;;;;;;17.55;40.92;99015.19;5065371;28;20032;-71
2022/09/17 07:57:08;;;;;;;0.30;0.30;;;;;;;17.33;41.39;99035.66;5064922;28;20021;-70
2022/09/17 07:59:33;;;;;;;0.30;0.30;;;;;;;17.39;41.56;99036.25;5064990;28;20358;-71
2022/09/17 08:01:59;;;;;;;0.30;0.30;;;;;;;17.31;41.35;99034.91;5065396;28;20084;-67
2022/09/17 08:04:24;;;;;;;0.30;0.30;;;;;;;17.38;42.29;99045.06;5064971;28;20021;-72
2022/09/17 08:06:50;;;;;;;0.30;0.30;;;;;;;17.92;42.57;99020.81;5067396;28;20020;-69
2022/09/17 08:09:16;;;;;;;0.20;0.20;;;;;;;18.24;40.48;99032.94;5068963;28;20028;-67
2022/09/17 08:11:42;;;;;;;0.20;0.20;;;;;;;18.20;40.13;99040.16;5069062;28;20121;-67
2022/09/17 08:14:13;;;;;;;0.30;0.30;;;;;;;18.08;39.49;99044.34;5068904;28;20028;-69
2022/09/17 08:16:39;;;;;;;0.30;0.30;;;;;;;18.09;39.68;99046.03;5069053;28;20024;-72
2022/09/17 08:19:04;;;;;;;0.30;0.30;;;;;;;18.14;39.54;99045.78;5068977;28;20051;-68
2022/09/17 08:21:29;;;;;;;0.25;0.25;;;;;;;18.51;39.23;99044.41;5069225;28;20050;-67
2022/09/17 08:23:55;;;;;;;0.30;0.30;;;;;;;18.65;38.74;99057.50;5068702;28;20025;-73
2022/09/17 08:26:22;;;;;;;0.30;0.30;;;;;;;18.58;38.45;99046.53;5069044;28;20534;-66
2022/09/17 08:28:49;;;;;;;0.25;0.25;;;;;;;18.49;38.66;99043.66;5068182;28;20108;-66
2022/09/17 08:31:17;;;;;;;0.30;0.30;;;;;;;18.55;38.75;99049.38;5068683;28;20088;-66
2022/09/17 08:33:43;;;;;;;0.30;0.30;;;;;;;18.49;37.99;99044.50;5068497;28;20025;-64
2022/09/17 08:36:12;;;;;;;0.30;0.30;;;;;;;18.56;37.89;99037.91;5068451;28;20045;-63
2022/09/17 08:38:38;;;;;;;0.30;0.30;;;;;;;18.93;37.41;99052.25;5068307;28;20461;-63
2022/09/17 08:41:09;;;;;;;0.30;0.30;;;;;;;19.31;36.92;99034.91;5068912;28;20437;-64
2022/09/17 08:43:57;;;;;;;0.30;0.30;;;;;;;19.46;36.90;99043.53;5068488;28;20021;-65
2022/09/17 08:46:30;;;;;;;0.20;0.20;;;;;;;19.89;36.78;99050.28;5038581;28;20096;-66
2022/09/17 08:49:33;;;;;;;0.20;0.20;;;;;;;20.05;34.88;99060.63;5068516;28;20017;-66
2022/09/17 08:52:23;;;;;;;0.20;0.20;;;;;;;20.03;35.36;99048.53;5066975;28;20394;-65
2022/09/17 08:54:57;;;;;;;0.30;0.30;;;;;;;20.27;35.53;99039.84;5068256;28;20039;-64
2022/09/17 08:57:42;;;;;;;0.20;0.20;;;;;;;20.56;35.01;99056.19;5067319;28;20025;-65
2022/09/17 09:00:15;;;;;;;0.30;0.30;;;;;;;20.62;34.47;99059.34;5066889;28;20028;-65
2022/09/17 09:03:10;;;;;;;0.20;0.20;;;;;;;20.86;34.99;99063.78;5068188;28;20024;-64
2022/09/17 09:05:54;;;;;;;0.20;0.20;;;;;;;21.32;33.53;99056.06;5067780;28;20154;-65
2022/09/17 09:08:46;;;;;;;0.20;0.20;;;;;;;21.83;34.36;99048.75;5068299;28;20021;-65
2022/09/17 09:11:16;;;;;;;;;;;;;;;22.25;32.25;99050.78;5068722;28;20063;-65
2022/09/17 09:13:49;;;;;;;0.20;0.20;;;;;;;22.86;31.96;99052.09;5067944;28;20332;-66
2022/09/17 09:16:20;;;;;;;0.20;0.20;;;;;;;22.87;31.47;99059.09;5067781;28;20071;-65
2022/09/17 09:18:50;;;;;;;0.20;0.20;;;;;;;23.11;30.50;99052.75;5065882;28;20462;-65
2022/09/17 09:21:27;;;;;;;0.20;0.20;;;;;;;23.03;30.54;99053.34;5067879;28;20025;-65
2022/09/17 09:23:57;;;;;;;0.20;0.20;;;;;;;23.61;30.44;99056.56;5067587;28;20020;-64
2022/09/17 09:26:37;;;;;;;0.20;0.20;;;;;;;23.93;28.96;99049.47;5067972;28;20028;-65
2022/09/17 09:29:14;;;;;;;0.20;0.20;;;;;;;23.70;29.49;99057.59;5067655;28;20072;-65
2022/09/17 09:32:17;;;;;;;0.20;0.20;;;;;;;23.58;29.52;99050.72;5067886;28;20174;-65
2022/09/17 09:34:44;;;;;;;0.20;0.20;;;;;;;23.52;29.75;99052.91;5067733;28;20058;-65
2022/09/17 09:37:16;;;;;;;0.20;0.20;;;;;;;23.60;29.64;99054.91;5067542;28;20465;-66
2022/09/17 09:39:43;;;;;;;0.20;0.20;;;;;;;23.78;29.13;99056.94;5067387;28;20025;-66
2022/09/17 09:42:32;;;;;;;0.20;0.20;;;;;;;24.19;29.43;99062.28;5067585;28;20044;-66
2022/09/17 09:45:20;;;;;;;0.20;0.20;;;;;;;24.21;27.71;99070.13;5067290;28;20056;-66
2022/09/17 09:48:22;;;;;;;0.20;0.20;;;;;;;23.66;28.12;99058.81;5067652;28;20029;-65
2022/09/17 09:51:02;;;;;;;;;;;;;;;23.99;28.58;99066.66;5048668;28;20098;-65
2022/09/17 09:53:42;;;;;;;0.10;0.10;;;;;;;24.36;27.57;99065.28;5067195;28;19909;-65
2022/09/17 09:56:27;;;;;;;0.20;0.20;;;;;;;24.26;28.26;99060.81;5067385;28;20033;-65
2022/09/17 09:58:52;;;;;;;0.20;0.20;;;;;;;24.69;28.59;99065.91;5067312;28;20029;-65
2022/09/17 10:01:19;;;;;;;0.10;0.10;;;;;;;25.28;28.36;99065.09;5066980;28;20036;-64
2022/09/17 10:03:46;;;;;;;0.20;0.20;;;;;;;25.42;25.88;99057.66;5065496;28;20033;-65
2022/09/17 10:06:12;;;;;;;0.10;0.10;;;;;;;24.95;26.19;99061.91;5067149;28;20025;-66
2022/09/17 10:08:40;;;;;;;0.20;0.20;;;;;;;24.24;26.30;99061.88;5066773;28;20028;-65
2022/09/17 10:11:12;;;;;;;0.20;0.20;;;;;;;23.66;27.21;99056.16;5067015;28;20021;-65
2022/09/17 10:13:39;;;;;;;0.20;0.20;;;;;;;23.69;27.02;99055.09;5066810;28;20040;-66
2022/09/17 10:16:18;;;;;;;0.20;0.20;;;;;;;23.40;27.16;99060.06;5066742;28;20060;-65
2022/09/17 10:18:45;;;;;;;0.10;0.10;;;;;;;23.87;27.20;99050.00;5066683;28;20083;-67
2022/09/17 10:21:28;;;;;;;0.20;0.20;;;;;;;23.69;26.70;99042.66;5066955;28;20017;-67
2022/09/17 10:23:54;;;;;;;0.20;0.20;;;;;;;23.40;27.55;99054.75;5066436;28;20032;-65
2022/09/17 10:26:27;;;;;;;0.20;0.20;;;;;;;23.23;27.52;99042.91;5066906;28;20104;-65
2022/09/17 10:28:55;;;;;;;0.20;0.20;;;;;;;23.24;28.03;99051.72;5066325;28;20021;-65
2022/09/17 10:31:21;;;;;;;0.20;0.20;;;;;;;23.74;26.95;99051.06;5066562;28;20025;-66
2022/09/17 10:34:03;;;;;;;0.20;0.20;;;;;;;23.82;28.19;99057.53;5066197;28;20093;-65
2022/09/17 10:36:38;;;;;;;;;;;;;;;24.50;27.89;99050.81;5066888;28;20048;-65
2022/09/17 10:39:37;;;;;;;0.10;0.10;;;;;;;24.59;26.43;99051.78;5066166;28;19916;-65
2022/09/17 10:42:04;;;;;;;0.10;0.10;;;;;;;24.19;26.15;99042.88;5066567;28;20039;-66
2022/09/17 10:44:34;;;;;;;0.20;0.20;;;;;;;23.75;27.32;99049.25;5066193;28;20025;-65
2022/09/17 10:47:21;;;;;;;0.20;0.20;;;;;;;24.22;28.15;99047.91;5064923;28;20135;-66
2022/09/17 10:49:59;;;;;;;0.20;0.20;;;;;;;24.87;27.71;99042.16;5066259;28;20077;-65
2022/09/17 10:52:41;;;;;;;0.20;0.20;;;;;;;25.52;26.99;99041.69;5066039;28;20028;-66
2022/09/17 10:55:33;;;;;;;0.20;0.20;;;;;;;26.15;26.75;99047.38;5066190;28;20075;-66
2022/09/17 10:58:07;;;;;;;;;;;;;;;26.36;25.40;99044.47;5066697;28;20029;-66
2022/09/17 11:01:00;;;;;;;0.20;0.20;;;;;;;26.59;24.79;99038.75;5065722;28;19913;-66
2022/09/17 11:03:50;;;;;;;0.20;0.20;;;;;;;26.52;24.75;99043.00;5066048;28;20035;-65
2022/09/17 11:06:37;;;;;;;0.10;0.10;;;;;;;26.84;25.61;99054.94;5066304;28;20021;-66
2022/09/17 11:09:25;;;;;;;0.30;0.30;;;;;;;26.92;24.88;99051.50;5065539;28;20021;-65
2022/09/17 11:11:56;;;;;;;0.10;0.10;;;;;;;27.03;24.48;99042.50;5064294;28;20105;-65
2022/09/17 11:14:47;;;;;;;0.20;0.20;;;;;;;26.80;23.11;99050.94;5065706;28;20036;-65
2022/09/17 11:17:48;;;;;;;0.20;0.20;;;;;;;25.94;23.83;99038.66;5065747;28;20056;-64
2022/09/17 11:20:51;;;;;;;0.20;0.20;;;;;;;25.33;24.95;99041.63;5065705;28;20262;-65
2022/09/17 11:24:04;;;;;;;0.10;0.10;;;;;;;24.25;26.22;99042.34;5065683;28;20037;-65
2022/09/17 11:26:47;;;;;;;0.20;0.20;;;;;;;22.63;28.65;99054.84;5050561;28;20040;-65
2022/09/17 11:29:37;;;;;;;2.25;2.05;;;;;;;21.88;30.29;99036.03;5064568;28;20115;-65
2022/09/17 11:32:24;;;;;;;0.20;0.20;;;;;;;21.32;31.50;99048.16;5063574;28;20029;-65
2022/09/17 11:35:10;;;;;;;0.20;0.20;;;;;;;20.79;31.97;99044.94;5065574;28;20111;-65
2022/09/17 11:37:47;;;;;;;0.20;0.20;;;;;;;20.22;32.98;99053.34;5064163;28;20045;-65
2022/09/17 11:40:35;;;;;;;0.20;0.20;;;;;;;19.89;33.70;99052.94;5064811;28;20021;-65
2022/09/17 11:43:25;;;;;;;0.20;0.20;;;;;;;19.53;34.36;99049.25;5054601;28;20037;-65
2022/09/17 11:46:02;;;;;;;0.20;0.20;;;;;;;19.24;35.25;99052.88;5065348;28;20017;-65
2022/09/17 11:48:34;;;;;;;0.22;0.22;;;;;;;19.01;36.07;99049.13;5065139;28;20079;-66
2022/09/17 11:51:07;;;;;;;0.20;0.20;;;;;;;18.78;36.60;99047.06;5065400;28;20045;-65
2022/09/17 11:53:49;;;;;;;0.20;0.20;;;;;;;18.56;37.70;99052.84;5065231;28;20096;-66
2022/09/17 11:56:28;;;;;;;0.30;0.30;;;;;;;18.25;38.38;99055.63;5064047;28;20028;-66
2022/09/17 11:59:13;;;;;;;0.30;0.30;;;;;;;18.13;38.41;99051.13;5065112;28;20031;-66